Time,TemperatureF,DewpointF,PressureIn,WindDirection,WindDirectionDegrees,WindSpeedMPH,WindSpeedGustMPH,Humidity,HourlyPrecipIn,Conditions,Clouds,dailyrainin,SoftwareType,DateUTC
2013-11-15 00:01:00,28.3,14.2,30.08,SE,135,6.0,6.0,55,0.00,CLR,,0.00,WeatherDisplay:10.37,2013-11-15 05:01:00,
2013-11-15 00:02:00,28.3,13.8,30.08,SSW,202,6.9,6.9,54,0.00,CLR,,0.00,WeatherDisplay:10.37,2013-11-15 05:02:00,
2013-11-15 00:03:00,28.2,13.6,30.08,SSE,158,5.8,5.8,54,0.00,CLR,,0.00,WeatherDisplay:10.37,2013-11-15 05:03:00,
2013-11-15 00:04:00,28.2,14.1,30.08,SW,225,6.9,6.9,55,0.00,CLR,,0.00,WeatherDisplay:10.37,2013-11-15 05:04:00,
2013-11-15 00:07:00,28.2,13.3,30.08,South,180,6.9,6.9,53,0.00,CLR,,0.00,WeatherDisplay:10.37,2013-11-15 05:07:00,
2013-11-15 00:08:00,28.2,13.2,30.08,SE,135,4.6,4.6,53,0.00,CLR,,0.00,WeatherDisplay:10.37,2013-11-15 05:08:00,
2013-11-15 00:13:00,28.1,13.1,30.08,East,90,8.1,8.1,53,0.00,CLR,,0.00,WeatherDisplay:10.37,2013-11-15 05:13:00,
2013-11-15 00:18:00,28.1,13.6,30.08,West,270,4.6,4.6,54,0.00,CLR,,0.00,WeatherDisplay:10.37,2013-11-15 05:18:00,
2013-11-15 00:23:00,28.3,14.2,30.08,West,270,7.5,7.5,55,0.00,CLR,,0.00,WeatherDisplay:10.37,2013-11-15 05:23:00,
2013-11-15 00:28:00,28.5,13.9,30.08,SSE,158,6.9,6.9,54,0.00,CLR,,0.00,WeatherDisplay:10.37,2013-11-15 05:28:00,
2013-11-15 00:33:00,28.5,14.4,30.08,South,180,7.5,7.5,55,0.00,CLR,,0.00,WeatherDisplay:10.37,2013-11-15 05:33:00,
2013-11-15 00:38:00,28.3,13.4,30.08,SSE,158,8.1,8.1,53,0.00,CLR,,0.00,WeatherDisplay:10.37,2013-11-15 05:38:00,
2013-11-15 00:43:00,28.4,13.9,30.08,East,90,8.1,8.1,54,0.00,CLR,,0.00,WeatherDisplay:10.37,2013-11-15 05:43:00,
2013-11-15 00:48:00,28.3,13.4,30.08,ESE,112,3.5,3.5,53,0.00,CLR,,0.00,WeatherDisplay:10.37,2013-11-15 05:48:00,
2013-11-15 00:53:00,28.4,13.9,30.08,South,180,7.5,7.5,54,0.00,CLR,,0.00,WeatherDisplay:10.37,2013-11-15 05:53:00,
2013-11-15 00:58:00,28.5,13.9,30.08,NW,315,5.8,5.8,54,0.00,CLR,,0.00,WeatherDisplay:10.37,2013-11-15 05:58:00,
2013-11-15 01:03:00,28.4,14.3,30.09,SE,135,6.9,6.9,55,0.00,CLR,,0.00,WeatherDisplay:10.37,2013-11-15 06:03:00,
2013-11-15 01:08:00,28.2,14.1,30.09,SSE,158,7.5,7.5,55,0.00,CLR,,0.00,WeatherDisplay:10.37,2013-11-15 06:08:00,
2013-11-15 01:13:00,28.4,13.9,30.09,SW,225,5.8,5.8,54,0.00,CLR,,0.00,WeatherDisplay:10.37,2013-11-15 06:13:00,
2013-11-15 01:18:00,28.6,14.4,30.09,SSE,158,8.1,8.1,55,0.00,CLR,,0.00,WeatherDisplay:10.37,2013-11-15 06:18:00,
2013-11-15 01:23:00,28.7,13.7,30.09,West,270,10.4,10.4,53,0.00,CLR,,0.00,WeatherDisplay:10.37,2013-11-15 06:23:00,
2013-11-15 01:28:00,28.8,14.2,30.09,South,180,9.2,9.2,54,0.00,CLR,,0.00,WeatherDisplay:10.37,2013-11-15 06:28:00,
2013-11-15 01:33:00,28.7,13.7,30.09,South,180,6.9,6.9,53,0.00,CLR,,0.00,WeatherDisplay:10.37,2013-11-15 06:33:00,
2013-11-15 01:38:00,28.4,13.9,30.09,SSE,158,4.6,4.6,54,0.00,CLR,,0.00,WeatherDisplay:10.37,2013-11-15 06:38:00,
2013-11-15 01:43:00,28.3,13.8,30.09,ESE,112,8.1,8.1,54,0.00,CLR,,0.00,WeatherDisplay:10.37,2013-11-15 06:43:00,
2013-11-15 01:48:00,28.4,13.9,30.09,SE,135,6.9,6.9,54,0.00,CLR,,0.00,WeatherDisplay:10.37,2013-11-15 06:48:00,
2013-11-15 01:53:00,28.3,13.7,30.09,West,270,9.2,9.2,54,0.00,CLR,,0.00,WeatherDisplay:10.37,2013-11-15 06:53:00,
2013-11-15 01:58:00,28.2,13.7,30.09,SSE,158,6.9,6.9,54,0.00,CLR,,0.00,WeatherDisplay:10.37,2013-11-15 06:58:00,
2013-11-15 02:03:00,28.0,13.5,30.10,SSE,158,4.6,4.6,54,0.00,CLR,,0.00,WeatherDisplay:10.37,2013-11-15 07:03:00,
2013-11-15 02:08:00,28.2,13.6,30.10,South,180,4.6,4.6,54,0.00,CLR,,0.00,WeatherDisplay:10.37,2013-11-15 07:08:00,
2013-11-15 02:13:00,28.3,13.7,30.10,ESE,112,5.9,5.9,54,0.00,CLR,,0.00,WeatherDisplay:10.37,2013-11-15 07:13:00,
2013-11-15 02:18:00,28.2,13.3,30.10,ESE,112,3.5,3.5,53,0.00,CLR,,0.00,WeatherDisplay:10.37,2013-11-15 07:18:00,
2013-11-15 02:23:00,28.1,13.1,30.10,SSW,202,8.1,8.1,53,0.00,CLR,,0.00,WeatherDisplay:10.37,2013-11-15 07:23:00,
2013-11-15 02:28:00,28.0,13.5,30.10,South,180,5.8,5.8,54,0.00,CLR,,0.00,WeatherDisplay:10.37,2013-11-15 07:28:00,
2013-11-15 02:33:00,27.9,13.8,30.10,SSW,202,6.9,6.9,55,0.00,CLR,,0.00,WeatherDisplay:10.37,2013-11-15 07:33:00,
2013-11-15 02:38:00,28.0,13.0,30.10,South,180,5.8,5.8,53,0.00,CLR,,0.00,WeatherDisplay:10.37,2013-11-15 07:38:00,
2013-11-15 02:43:00,28.2,13.7,30.10,South,180,6.9,6.9,54,0.00,CLR,,0.00,WeatherDisplay:10.37,2013-11-15 07:43:00,
2013-11-15 02:48:00,28.2,14.1,30.10,ESE,112,5.8,5.8,55,0.00,CLR,,0.00,WeatherDisplay:10.37,2013-11-15 07:48:00,
2013-11-15 02:53:00,28.2,13.7,30.10,South,180,10.4,10.4,54,0.00,CLR,,0.00,WeatherDisplay:10.37,2013-11-15 07:53:00,
2013-11-15 02:58:00,28.5,14.0,30.10,SSW,202,8.1,8.1,54,0.00,CLR,,0.00,WeatherDisplay:10.37,2013-11-15 07:58:00,
2013-11-15 03:03:00,28.2,13.7,30.10,NNE,22,4.6,4.6,54,0.00,CLR,,0.00,WeatherDisplay:10.37,2013-11-15 08:03:00,
2013-11-15 03:08:00,28.2,13.7,30.10,SE,135,6.9,6.9,54,0.00,CLR,,0.00,WeatherDisplay:10.37,2013-11-15 08:08:00,
2013-11-15 03:13:00,28.2,13.2,30.10,West,270,8.1,8.1,53,0.00,CLR,,0.00,WeatherDisplay:10.37,2013-11-15 08:13:00,
2013-11-15 03:18:00,28.3,13.3,30.10,South,180,3.5,3.5,53,0.00,CLR,,0.00,WeatherDisplay:10.37,2013-11-15 08:18:00,
2013-11-15 03:23:00,28.4,13.9,30.10,South,180,6.3,6.3,54,0.00,CLR,,0.00,WeatherDisplay:10.37,2013-11-15 08:23:00,
2013-11-15 03:28:00,28.4,13.4,30.10,SSE,158,4.6,4.6,53,0.00,CLR,,0.00,WeatherDisplay:10.37,2013-11-15 08:28:00,
2013-11-15 03:33:00,28.7,14.1,30.10,South,180,3.5,3.5,54,0.00,CLR,,0.00,WeatherDisplay:10.37,2013-11-15 08:33:00,
2013-11-15 03:38:00,28.6,13.6,30.10,East,90,6.9,6.9,53,0.00,CLR,,0.00,WeatherDisplay:10.37,2013-11-15 08:38:00,
2013-11-15 03:43:00,28.5,14.0,30.10,SE,135,8.1,8.1,54,0.00,CLR,,0.00,WeatherDisplay:10.37,2013-11-15 08:43:00,
2013-11-15 03:48:00,28.4,13.0,30.10,SE,135,5.8,5.8,52,0.00,CLR,,0.00,WeatherDisplay:10.37,2013-11-15 08:48:00,
2013-11-15 03:53:00,28.4,13.9,30.10,SSE,158,4.5,4.5,54,0.00,CLR,,0.00,WeatherDisplay:10.37,2013-11-15 08:53:00,
2013-11-15 03:58:00,28.2,13.7,30.10,ESE,112,6.9,6.9,54,0.00,CLR,,0.00,WeatherDisplay:10.37,2013-11-15 08:58:00,
2013-11-15 04:03:00,28.3,13.7,30.11,SE,135,9.2,9.2,54,0.00,CLR,,0.00,WeatherDisplay:10.37,2013-11-15 09:03:00,
2013-11-15 04:08:00,28.2,13.7,30.11,SE,135,4.9,4.9,54,0.00,CLR,,0.00,WeatherDisplay:10.37,2013-11-15 09:08:00,
2013-11-15 04:13:00,28.3,14.2,30.11,SW,225,4.6,4.6,55,0.00,CLR,,0.00,WeatherDisplay:10.37,2013-11-15 09:13:00,
2013-11-15 04:18:00,28.2,13.6,30.11,SE,135,6.2,6.2,54,0.00,CLR,,0.00,WeatherDisplay:10.37,2013-11-15 09:18:00,
2013-11-15 04:23:00,28.2,13.3,30.11,SSW,202,6.9,6.9,53,0.00,CLR,,0.00,WeatherDisplay:10.37,2013-11-15 09:23:00,
2013-11-15 04:28:00,28.1,13.1,30.11,ESE,112,8.1,8.1,53,0.00,CLR,,0.00,WeatherDisplay:10.37,2013-11-15 09:28:00,
2013-11-15 04:33:00,28.4,13.4,30.11,SSE,158,4.6,4.6,53,0.00,CLR,,0.00,WeatherDisplay:10.37,2013-11-15 09:33:00,
2013-11-15 04:38:00,28.3,14.2,30.11,SW,225,4.6,4.6,55,0.00,CLR,,0.00,WeatherDisplay:10.37,2013-11-15 09:38:00,
2013-11-15 04:43:00,28.2,14.1,30.11,South,180,4.6,4.6,55,0.00,CLR,,0.00,WeatherDisplay:10.37,2013-11-15 09:43:00,
2013-11-15 04:48:00,28.1,13.1,30.11,West,270,3.5,3.5,53,0.00,CLR,,0.00,WeatherDisplay:10.37,2013-11-15 09:48:00,
2013-11-15 04:53:00,27.8,13.3,30.11,SE,135,4.6,4.6,54,0.00,CLR,,0.00,WeatherDisplay:10.37,2013-11-15 09:53:00,
2013-11-15 04:58:00,28.1,13.6,30.11,SE,135,9.2,9.2,54,0.00,CLR,,0.00,WeatherDisplay:10.37,2013-11-15 09:58:00,
2013-11-15 05:03:00,28.5,14.3,30.11,SSE,158,8.1,8.1,55,0.00,CLR,,0.00,WeatherDisplay:10.37,2013-11-15 10:03:00,
2013-11-15 05:08:00,28.3,13.8,30.11,SE,135,6.0,6.0,54,0.00,CLR,,0.00,WeatherDisplay:10.37,2013-11-15 10:08:00,
2013-11-15 05:13:00,28.6,14.5,30.11,South,180,5.8,5.8,55,0.00,CLR,,0.00,WeatherDisplay:10.37,2013-11-15 10:13:00,
2013-11-15 05:18:00,28.3,13.3,30.11,SSE,158,5.8,5.8,53,0.00,CLR,,0.00,WeatherDisplay:10.37,2013-11-15 10:18:00,
2013-11-15 05:23:00,28.0,13.0,30.11,SSE,158,6.9,6.9,53,0.00,CLR,,0.00,WeatherDisplay:10.37,2013-11-15 10:23:00,
2013-11-15 05:28:00,27.8,13.7,30.11,SSE,158,4.6,4.6,55,0.00,CLR,,0.00,WeatherDisplay:10.37,2013-11-15 10:28:00,
2013-11-15 05:33:00,27.6,13.5,30.11,WNW,292,3.5,3.5,55,0.00,CLR,,0.00,WeatherDisplay:10.37,2013-11-15 10:33:00,
2013-11-15 05:38:00,27.8,13.3,30.11,South,180,4.6,4.6,54,0.00,CLR,,0.00,WeatherDisplay:10.37,2013-11-15 10:38:00,
2013-11-15 05:43:00,27.7,13.2,30.11,South,180,4.7,4.7,54,0.00,CLR,,0.00,WeatherDisplay:10.37,2013-11-15 10:43:00,
2013-11-15 05:48:00,27.6,13.1,30.11,SSW,202,6.9,6.9,54,0.00,CLR,,0.00,WeatherDisplay:10.37,2013-11-15 10:48:00,
2013-11-15 05:53:00,27.6,12.7,30.11,South,180,4.6,4.6,53,0.00,CLR,,0.00,WeatherDisplay:10.37,2013-11-15 10:53:00,
2013-11-15 05:58:00,27.4,12.5,30.11,South,180,5.8,5.8,53,0.00,CLR,,0.00,WeatherDisplay:10.37,2013-11-15 10:58:00,
2013-11-15 06:03:00,27.2,12.7,30.12,SE,135,4.6,4.6,54,0.00,CLR,,0.00,WeatherDisplay:10.37,2013-11-15 11:03:00,
2013-11-15 06:08:00,27.0,12.5,30.12,SSW,202,6.7,6.7,54,0.00,CLR,,0.00,WeatherDisplay:10.37,2013-11-15 11:08:00,
2013-11-15 06:13:00,27.0,12.1,30.12,South,180,5.8,5.8,53,0.00,CLR,,0.00,WeatherDisplay:10.37,2013-11-15 11:13:00,
2013-11-15 06:18:00,26.8,12.4,30.12,SSW,202,8.1,8.1,54,0.00,CLR,,0.00,WeatherDisplay:10.37,2013-11-15 11:18:00,
2013-11-15 06:23:00,26.5,11.7,30.12,South,180,5.8,5.8,53,0.00,CLR,,0.00,WeatherDisplay:10.37,2013-11-15 11:23:00,
2013-11-15 06:28:00,26.4,11.2,30.12,SW,225,8.1,8.1,52,0.00,CLR,,0.00,WeatherDisplay:10.37,2013-11-15 11:28:00,
2013-11-15 06:33:00,26.5,11.3,30.12,South,180,9.2,9.2,52,0.00,CLR,,0.00,WeatherDisplay:10.37,2013-11-15 11:33:00,
2013-11-15 06:38:00,26.3,11.4,30.12,SE,135,3.5,3.5,53,0.00,CLR,,0.00,WeatherDisplay:10.37,2013-11-15 11:38:00,
2013-11-15 06:43:00,26.3,12.3,30.12,South,180,4.6,4.6,55,0.00,CLR,,0.00,WeatherDisplay:10.37,2013-11-15 11:43:00,
2013-11-15 06:48:00,26.2,11.4,30.12,SSW,202,5.8,5.8,53,0.00,CLR,,0.00,WeatherDisplay:10.37,2013-11-15 11:48:00,
2013-11-15 06:53:00,26.2,11.4,30.12,South,180,8.1,8.1,53,0.00,CLR,,0.00,WeatherDisplay:10.37,2013-11-15 11:53:00,
2013-11-15 06:58:00,26.0,11.6,30.12,WNW,292,4.6,4.6,54,0.00,CLR,,0.00,WeatherDisplay:10.37,2013-11-15 11:58:00,
2013-11-15 07:03:00,26.0,13.3,30.13,SE,135,9.2,9.2,58,0.00,CLR,,0.00,WeatherDisplay:10.37,2013-11-15 12:03:00,
2013-11-15 07:08:00,26.1,13.3,30.13,South,180,3.5,3.5,58,0.00,CLR,,0.00,WeatherDisplay:10.37,2013-11-15 12:08:00,
2013-11-15 07:13:00,26.1,13.3,30.13,SE,135,7.1,7.1,58,0.00,CLR,,0.00,WeatherDisplay:10.37,2013-11-15 12:13:00,
2013-11-15 07:18:00,26.2,13.4,30.13,SSE,158,6.9,6.9,58,0.00,CLR,,0.00,WeatherDisplay:10.37,2013-11-15 12:18:00,
2013-11-15 07:23:00,26.5,13.7,30.13,SE,135,6.6,6.6,58,0.00,CLR,,0.00,WeatherDisplay:10.37,2013-11-15 12:23:00,
2013-11-15 07:28:00,26.8,14.3,30.13,South,180,5.8,5.8,59,0.00,CLR,,0.00,WeatherDisplay:10.37,2013-11-15 12:28:00,
2013-11-15 07:33:00,27.0,14.2,30.13,SSE,158,4.6,4.6,58,0.00,CLR,,0.00,WeatherDisplay:10.37,2013-11-15 12:33:00,
2013-11-15 07:38:00,26.9,14.5,30.13,SSW,202,5.9,5.9,59,0.00,CLR,,0.00,WeatherDisplay:10.37,2013-11-15 12:38:00,
2013-11-15 07:43:00,27.1,14.3,30.13,South,180,6.9,6.9,58,0.00,CLR,,0.00,WeatherDisplay:10.37,2013-11-15 12:43:00,
2013-11-15 07:48:00,27.1,14.7,30.13,West,270,3.5,3.5,59,0.00,CLR,,0.00,WeatherDisplay:10.37,2013-11-15 12:48:00,
2013-11-15 07:53:00,27.2,14.3,30.13,SSE,158,5.8,5.8,58,0.00,CLR,,0.00,WeatherDisplay:10.37,2013-11-15 12:53:00,
2013-11-15 07:58:00,27.3,14.8,30.13,SE,135,6.5,6.5,59,0.00,CLR,,0.00,WeatherDisplay:10.37,2013-11-15 12:58:00,
2013-11-15 08:03:00,27.4,14.9,30.15,SSW,202,6.9,6.9,59,0.00,CLR,,0.00,WeatherDisplay:10.37,2013-11-15 13:03:00,
2013-11-15 08:08:00,27.7,15.2,30.15,South,180,5.8,5.8,59,0.00,CLR,,0.00,WeatherDisplay:10.37,2013-11-15 13:08:00,
2013-11-15 08:13:00,28.2,16.1,30.15,South,180,5.0,5.0,60,0.00,CLR,,0.00,WeatherDisplay:10.37,2013-11-15 13:13:00,
2013-11-15 08:18:00,28.3,16.2,30.15,ESE,112,4.6,4.6,60,0.00,CLR,,0.00,WeatherDisplay:10.37,2013-11-15 13:18:00,
2013-11-15 08:23:00,28.8,16.3,30.15,South,180,5.8,5.8,59,0.00,CLR,,0.00,WeatherDisplay:10.37,2013-11-15 13:23:00,
2013-11-15 08:28:00,29.2,16.6,30.15,SSW,202,3.5,3.5,59,0.00,CLR,,0.00,WeatherDisplay:10.37,2013-11-15 13:28:00,
2013-11-15 08:33:00,29.2,17.1,30.15,SSE,158,4.6,4.6,60,0.00,CLR,,0.00,WeatherDisplay:10.37,2013-11-15 13:33:00,
2013-11-15 08:38:00,29.2,16.7,30.15,SW,225,4.6,4.6,59,0.00,CLR,,0.00,WeatherDisplay:10.37,2013-11-15 13:38:00,
2013-11-15 08:43:00,29.6,17.4,30.15,South,180,5.8,5.8,60,0.00,CLR,,0.00,WeatherDisplay:10.37,2013-11-15 13:43:00,
2013-11-15 08:48:00,30.0,17.8,30.15,South,180,3.5,3.5,60,0.00,CLR,,0.00,WeatherDisplay:10.37,2013-11-15 13:48:00,
2013-11-15 08:53:00,30.5,18.3,30.15,SE,135,6.9,6.9,60,0.00,CLR,,0.00,WeatherDisplay:10.37,2013-11-15 13:53:00,
2013-11-15 08:58:00,30.9,18.2,30.15,SW,225,3.5,3.5,59,0.00,CLR,,0.00,WeatherDisplay:10.37,2013-11-15 13:58:00,
2013-11-15 09:04:00,31.0,18.7,30.14,SSE,158,4.6,4.6,60,0.00,CLR,,0.00,WeatherDisplay:10.37,2013-11-15 14:04:00,
2013-11-15 09:09:00,31.3,19.0,30.14,ESE,112,5.0,5.0,60,0.00,CLR,,0.00,WeatherDisplay:10.37,2013-11-15 14:09:00,
2013-11-15 09:14:00,31.9,19.2,30.14,ESE,112,5.8,5.8,59,0.00,CLR,,0.00,WeatherDisplay:10.37,2013-11-15 14:14:00,
2013-11-15 09:19:00,32.7,20.3,30.14,SE,135,3.5,3.5,60,0.00,CLR,,0.00,WeatherDisplay:10.37,2013-11-15 14:19:00,
2013-11-15 09:24:00,33.1,20.7,30.14,South,180,4.5,4.5,60,0.00,CLR,,0.00,WeatherDisplay:10.37,2013-11-15 14:24:00,
2013-11-15 09:29:00,33.7,21.3,30.14,South,180,3.5,3.5,60,0.00,CLR,,0.00,WeatherDisplay:10.37,2013-11-15 14:29:00,
2013-11-15 09:34:00,34.9,22.4,30.14,South,180,4.6,4.6,60,0.00,CLR,,0.00,WeatherDisplay:10.37,2013-11-15 14:34:00,
2013-11-15 09:39:00,35.9,23.3,30.14,South,180,4.6,4.6,60,0.00,CLR,,0.00,WeatherDisplay:10.37,2013-11-15 14:39:00,
2013-11-15 09:44:00,37.2,24.6,30.14,East,90,3.5,3.5,60,0.00,CLR,,0.00,WeatherDisplay:10.37,2013-11-15 14:44:00,
2013-11-15 09:49:00,38.6,26.3,30.14,North,360,13.7,13.7,61,0.00,CLR,,0.00,WeatherDisplay:10.37,2013-11-15 14:49:00,
2013-11-15 09:55:00,40.9,28.5,30.14,SE,135,4.6,4.6,61,0.00,CLR,,0.00,WeatherDisplay:10.37,2013-11-15 14:55:00,
2013-11-15 10:00:00,41.4,28.9,30.14,NW,315,4.6,4.6,61,0.00,CLR,,0.00,WeatherDisplay:10.37,2013-11-15 15:00:00,
2013-11-15 10:05:00,41.8,29.4,30.15,NNW,338,4.6,4.6,61,0.00,CLR,,0.00,WeatherDisplay:10.37,2013-11-15 15:05:00,
2013-11-15 10:10:00,42.2,29.7,30.15,SE,135,6.9,6.9,61,0.00,CLR,,0.00,WeatherDisplay:10.37,2013-11-15 15:10:00,
2013-11-15 10:15:00,42.6,30.1,30.15,ENE,68,4.6,4.6,61,0.00,CLR,,0.00,WeatherDisplay:10.37,2013-11-15 15:15:00,
2013-11-15 10:20:00,43.1,30.6,30.15,North,360,11.4,11.4,61,0.00,CLR,,0.00,WeatherDisplay:10.37,2013-11-15 15:20:00,
2013-11-15 10:25:00,43.9,31.3,30.15,West,270,6.9,6.9,61,0.00,CLR,,0.00,WeatherDisplay:10.37,2013-11-15 15:25:00,
2013-11-15 10:30:00,44.9,32.3,30.15,South,180,1.2,1.2,61,0.00,CLR,,0.00,WeatherDisplay:10.37,2013-11-15 15:30:00,
2013-11-15 10:35:00,45.7,33.0,30.15,WNW,292,11.8,11.8,61,0.00,CLR,,0.00,WeatherDisplay:10.37,2013-11-15 15:35:00,
2013-11-15 10:40:00,46.2,33.5,30.15,NW,315,12.1,12.1,61,0.00,CLR,,0.00,WeatherDisplay:10.37,2013-11-15 15:40:00,
2013-11-15 10:45:00,46.7,34.0,30.15,SE,135,13.8,13.8,61,0.00,CLR,,0.00,WeatherDisplay:10.37,2013-11-15 15:45:00,
2013-11-15 10:50:00,47.5,34.7,30.15,WSW,248,4.6,4.6,61,0.00,CLR,,0.00,WeatherDisplay:10.37,2013-11-15 15:50:00,
2013-11-15 10:55:00,47.9,35.5,30.15,ENE,68,5.8,5.8,62,0.00,CLR,,0.00,WeatherDisplay:10.37,2013-11-15 15:55:00,
2013-11-15 11:00:00,48.3,35.5,30.15,North,360,4.8,4.8,61,0.00,CLR,,0.00,WeatherDisplay:10.37,2013-11-15 16:00:00,
2013-11-15 11:05:00,48.5,35.7,30.14,WNW,292,19.6,19.6,61,0.00,CLR,,0.00,WeatherDisplay:10.37,2013-11-15 16:05:00,
2013-11-15 11:10:00,48.5,35.6,30.14,North,360,11.5,11.5,61,0.00,CLR,,0.00,WeatherDisplay:10.37,2013-11-15 16:10:00,
2013-11-15 11:15:00,49.2,36.3,30.14,West,270,6.9,6.9,61,0.00,CLR,,0.00,WeatherDisplay:10.37,2013-11-15 16:15:00,
2013-11-15 11:20:00,49.7,36.8,30.14,ENE,68,3.5,3.5,61,0.00,CLR,,0.00,WeatherDisplay:10.37,2013-11-15 16:20:00,
2013-11-15 11:25:00,50.6,37.7,30.13,WNW,292,7.8,7.8,61,0.00,CLR,,0.00,WeatherDisplay:10.37,2013-11-15 16:25:00,
2013-11-15 11:30:00,51.1,38.5,30.13,West,270,5.8,5.8,62,0.00,CLR,,0.00,WeatherDisplay:10.37,2013-11-15 16:30:00,
2013-11-15 11:35:00,51.3,38.3,30.13,South,180,16.1,16.1,61,0.00,CLR,,0.00,WeatherDisplay:10.37,2013-11-15 16:35:00,
2013-11-15 11:40:00,51.1,38.1,30.13,West,270,20.7,20.7,61,0.00,CLR,,0.00,WeatherDisplay:10.37,2013-11-15 16:40:00,
2013-11-15 11:45:00,51.1,38.5,30.13,NW,315,5.8,5.8,62,0.00,CLR,,0.00,WeatherDisplay:10.37,2013-11-15 16:45:00,
2013-11-15 11:50:00,51.2,38.2,30.13,NW,315,4.6,4.6,61,0.00,CLR,,0.00,WeatherDisplay:10.37,2013-11-15 16:50:00,
2013-11-15 11:55:00,51.5,39.3,30.13,SSW,202,8.1,8.1,63,0.00,CLR,,0.00,WeatherDisplay:10.37,2013-11-15 16:55:00,
2013-11-15 12:00:00,51.5,38.9,30.13,NNW,338,13.8,13.8,62,0.00,CLR,,0.00,WeatherDisplay:10.37,2013-11-15 17:00:00,
2013-11-15 12:05:00,51.7,39.1,30.13,WNW,292,8.0,8.0,62,0.00,CLR,,0.00,WeatherDisplay:10.37,2013-11-15 17:05:00,
2013-11-15 12:10:00,51.0,38.0,30.13,West,270,21.7,21.7,61,0.00,CLR,,0.00,WeatherDisplay:10.37,2013-11-15 17:10:00,
2013-11-15 12:15:00,50.8,38.2,30.13,North,360,15.0,15.0,62,0.00,CLR,,0.00,WeatherDisplay:10.37,2013-11-15 17:15:00,
2013-11-15 12:20:00,50.3,37.8,30.13,West,270,9.2,9.2,62,0.00,CLR,,0.00,WeatherDisplay:10.37,2013-11-15 17:20:00,
2013-11-15 12:25:00,49.8,36.9,30.13,SW,225,13.3,13.3,61,0.00,CLR,,0.00,WeatherDisplay:10.37,2013-11-15 17:25:00,
2013-11-15 12:30:00,49.6,36.7,30.13,West,270,9.2,9.2,61,0.00,CLR,,0.00,WeatherDisplay:10.37,2013-11-15 17:30:00,
2013-11-15 12:35:00,49.9,37.0,30.13,West,270,5.9,5.9,61,0.00,CLR,,0.00,WeatherDisplay:10.37,2013-11-15 17:35:00,
2013-11-15 12:40:00,49.9,37.0,30.13,West,270,10.4,10.4,61,0.00,CLR,,0.00,WeatherDisplay:10.37,2013-11-15 17:40:00,
2013-11-15 12:45:00,50.0,37.1,30.13,East,90,6.9,6.9,61,0.00,CLR,,0.00,WeatherDisplay:10.37,2013-11-15 17:45:00,
2013-11-15 12:50:00,49.6,36.7,30.13,SSE,158,5.8,5.8,61,0.00,CLR,,0.00,WeatherDisplay:10.37,2013-11-15 17:50:00,
2013-11-15 12:55:00,49.7,36.4,30.13,NE,45,5.8,5.8,60,0.00,CLR,,0.00,WeatherDisplay:10.37,2013-11-15 17:55:00,
2013-11-15 13:00:00,49.8,36.9,30.13,West,270,6.9,6.9,61,0.00,CLR,,0.00,WeatherDisplay:10.37,2013-11-15 18:00:00,
2013-11-15 13:05:00,49.8,36.9,30.10,North,360,3.5,3.5,61,0.00,CLR,,0.00,WeatherDisplay:10.37,2013-11-15 18:05:00,
2013-11-15 13:10:00,50.0,37.5,30.10,East,90,9.2,9.2,62,0.00,CLR,,0.00,WeatherDisplay:10.37,2013-11-15 18:10:00,
2013-11-15 13:15:00,50.0,37.1,30.10,WNW,292,8.1,8.1,61,0.00,CLR,,0.00,WeatherDisplay:10.37,2013-11-15 18:15:00,
2013-11-15 13:20:00,50.3,37.4,30.10,NW,315,9.2,9.2,61,0.00,CLR,,0.00,WeatherDisplay:10.37,2013-11-15 18:20:00,
2013-11-15 13:25:00,50.6,37.6,30.10,West,270,6.9,6.9,61,0.00,CLR,,0.00,WeatherDisplay:10.37,2013-11-15 18:25:00,
2013-11-15 13:30:00,50.9,37.9,30.10,WNW,292,12.7,12.7,61,0.00,CLR,,0.00,WeatherDisplay:10.37,2013-11-15 18:30:00,
2013-11-15 13:35:00,51.0,38.0,30.10,WSW,248,10.4,10.4,61,0.00,CLR,,0.00,WeatherDisplay:10.37,2013-11-15 18:35:00,
2013-11-15 13:40:00,50.7,37.8,30.10,West,270,13.8,13.8,61,0.00,CLR,,0.00,WeatherDisplay:10.37,2013-11-15 18:40:00,
2013-11-15 13:45:00,50.9,37.9,30.10,WNW,292,12.7,12.7,61,0.00,CLR,,0.00,WeatherDisplay:10.37,2013-11-15 18:45:00,
2013-11-15 13:50:00,50.7,37.7,30.10,West,270,11.5,11.5,61,0.00,CLR,,0.00,WeatherDisplay:10.37,2013-11-15 18:50:00,
2013-11-15 13:55:00,50.7,37.8,30.10,South,180,13.1,13.1,61,0.00,CLR,,0.00,WeatherDisplay:10.37,2013-11-15 18:55:00,
2013-11-15 14:00:00,50.2,37.2,30.10,NW,315,1.2,1.2,61,0.00,CLR,,0.00,WeatherDisplay:10.37,2013-11-15 19:00:00,
2013-11-15 14:06:00,50.2,36.8,30.08,SE,135,10.4,10.4,60,0.00,CLR,,0.00,WeatherDisplay:10.37,2013-11-15 19:06:00,
2013-11-15 14:11:00,49.9,36.5,30.08,ENE,68,5.8,5.8,60,0.00,CLR,,0.00,WeatherDisplay:10.37,2013-11-15 19:11:00,
2013-11-15 14:16:00,49.9,37.0,30.08,WSW,248,11.4,11.4,61,0.00,CLR,,0.00,WeatherDisplay:10.37,2013-11-15 19:16:00,
2013-11-15 14:21:00,49.8,36.5,30.08,WSW,248,12.7,12.7,60,0.00,CLR,,0.00,WeatherDisplay:10.37,2013-11-15 19:21:00,
2013-11-15 14:26:00,49.6,36.3,30.08,NW,315,11.9,11.9,60,0.00,CLR,,0.00,WeatherDisplay:10.37,2013-11-15 19:26:00,
2013-11-15 14:31:00,49.7,36.4,30.08,WSW,248,4.6,4.6,60,0.00,CLR,,0.00,WeatherDisplay:10.37,2013-11-15 19:31:00,
2013-11-15 14:36:00,49.6,36.3,30.08,NNE,22,4.6,4.6,60,0.00,CLR,,0.00,WeatherDisplay:10.37,2013-11-15 19:36:00,
2013-11-15 14:41:00,49.4,36.1,30.08,WNW,292,6.9,6.9,60,0.00,CLR,,0.00,WeatherDisplay:10.37,2013-11-15 19:41:00,
2013-11-15 14:46:00,49.4,36.1,30.08,NW,315,5.8,5.8,60,0.00,CLR,,0.00,WeatherDisplay:10.37,2013-11-15 19:46:00,
2013-11-15 14:51:00,49.0,35.3,30.08,WNW,292,8.1,8.1,59,0.00,CLR,,0.00,WeatherDisplay:10.37,2013-11-15 19:51:00,
2013-11-15 14:56:00,48.9,35.2,30.08,West,270,4.5,4.5,59,0.00,CLR,,0.00,WeatherDisplay:10.37,2013-11-15 19:56:00,
2013-11-15 15:01:00,48.6,34.9,30.10,WNW,292,5.8,5.8,59,0.00,CLR,,0.00,WeatherDisplay:10.37,2013-11-15 20:01:00,
2013-11-15 15:06:00,48.3,34.6,30.10,WNW,292,9.2,9.2,59,0.00,CLR,,0.00,WeatherDisplay:10.37,2013-11-15 20:06:00,
2013-11-15 15:11:00,48.0,34.3,30.10,WSW,248,8.1,8.1,59,0.00,CLR,,0.00,WeatherDisplay:10.37,2013-11-15 20:11:00,
2013-11-15 15:16:00,47.6,34.0,30.10,West,270,4.4,4.4,59,0.00,CLR,,0.00,WeatherDisplay:10.37,2013-11-15 20:16:00,
2013-11-15 15:21:00,47.1,33.9,30.10,ENE,68,4.6,4.6,60,0.00,CLR,,0.00,WeatherDisplay:10.37,2013-11-15 20:21:00,
2013-11-15 15:26:00,46.5,32.9,30.10,West,270,2.3,2.3,59,0.00,CLR,,0.00,WeatherDisplay:10.37,2013-11-15 20:26:00,
2013-11-15 15:31:00,46.1,32.5,30.10,SSW,202,1.7,1.7,59,0.00,CLR,,0.00,WeatherDisplay:10.37,2013-11-15 20:31:00,
2013-11-15 15:36:00,45.6,32.0,30.10,WNW,292,1.2,0.0,59,0.00,CLR,,0.00,WeatherDisplay:10.37,2013-11-15 20:36:00,
2013-11-15 15:41:00,45.0,31.5,30.10,ENE,68,0.0,0.0,59,0.00,CLR,,0.00,WeatherDisplay:10.37,2013-11-15 20:41:00,
2013-11-15 15:46:00,44.3,30.5,30.10,SW,225,3.5,3.5,58,0.00,CLR,,0.00,WeatherDisplay:10.37,2013-11-15 20:46:00,
2013-11-15 15:51:00,43.5,30.1,30.10,South,180,4.6,4.6,59,0.00,CLR,,0.00,WeatherDisplay:10.37,2013-11-15 20:51:00,
2013-11-15 15:56:00,42.9,29.6,30.10,SE,135,3.5,3.5,59,0.00,CLR,,0.00,WeatherDisplay:10.37,2013-11-15 20:56:00,
2013-11-15 16:01:00,42.2,28.5,30.10,South,180,1.2,0.0,58,0.00,CLR,,0.00,WeatherDisplay:10.37,2013-11-15 21:01:00,
2013-11-15 16:06:00,41.6,27.9,30.10,South,180,4.6,4.6,58,0.00,CLR,,0.00,WeatherDisplay:10.37,2013-11-15 21:06:00,
2013-11-15 16:11:00,40.9,26.9,30.10,South,180,3.5,3.5,57,0.00,CLR,,0.00,WeatherDisplay:10.37,2013-11-15 21:11:00,
2013-11-15 16:16:00,40.4,25.5,30.10,South,180,4.6,4.6,55,0.00,CLR,,0.00,WeatherDisplay:10.37,2013-11-15 21:16:00,
2013-11-15 16:21:00,39.8,24.5,30.10,SSW,202,4.6,4.6,54,0.00,CLR,,0.00,WeatherDisplay:10.37,2013-11-15 21:21:00,
2013-11-15 16:26:00,39.2,23.9,30.10,South,180,5.8,5.8,54,0.00,CLR,,0.00,WeatherDisplay:10.37,2013-11-15 21:26:00,
2013-11-15 16:31:00,38.9,24.5,30.10,SSW,202,5.0,5.0,56,0.00,CLR,,0.00,WeatherDisplay:10.37,2013-11-15 21:31:00,
2013-11-15 16:36:00,38.4,23.2,30.10,South,180,6.9,6.9,54,0.00,CLR,,0.00,WeatherDisplay:10.37,2013-11-15 21:36:00,
2013-11-15 16:41:00,38.1,22.9,30.10,South,180,6.9,6.9,54,0.00,CLR,,0.00,WeatherDisplay:10.37,2013-11-15 21:41:00,
2013-11-15 16:46:00,37.7,22.5,30.10,South,180,5.8,5.8,54,0.00,CLR,,0.00,WeatherDisplay:10.37,2013-11-15 21:46:00,
2013-11-15 16:52:00,37.2,22.5,30.10,South,180,5.8,5.8,55,0.00,CLR,,0.00,WeatherDisplay:10.37,2013-11-15 21:52:00,
2013-11-15 16:57:00,36.5,21.8,30.10,SSW,202,5.8,5.8,55,0.00,CLR,,0.00,WeatherDisplay:10.37,2013-11-15 21:57:00,
2013-11-15 17:02:00,36.2,21.6,30.10,South,180,6.9,6.9,55,0.00,CLR,,0.00,WeatherDisplay:10.37,2013-11-15 22:02:00,
2013-11-15 17:07:00,36.2,21.5,30.10,South,180,5.9,5.9,55,0.00,CLR,,0.00,WeatherDisplay:10.37,2013-11-15 22:07:00,
2013-11-15 17:12:00,35.9,21.7,30.10,South,180,4.6,4.6,56,0.00,CLR,,0.00,WeatherDisplay:10.37,2013-11-15 22:12:00,
2013-11-15 17:17:00,35.4,21.3,30.10,South,180,4.6,4.6,56,0.00,CLR,,0.00,WeatherDisplay:10.37,2013-11-15 22:17:00,
2013-11-15 17:23:00,34.9,19.9,30.10,South,180,4.7,4.7,54,0.00,CLR,,0.00,WeatherDisplay:10.37,2013-11-15 22:23:00,
2013-11-15 17:28:00,34.4,19.4,30.10,South,180,5.8,5.8,54,0.00,CLR,,0.00,WeatherDisplay:10.37,2013-11-15 22:28:00,
2013-11-15 17:33:00,34.0,20.0,30.10,South,180,8.1,8.1,56,0.00,CLR,,0.00,WeatherDisplay:10.37,2013-11-15 22:33:00,
2013-11-15 17:39:00,33.9,19.4,30.10,SSW,202,5.8,5.8,55,0.00,CLR,,0.00,WeatherDisplay:10.37,2013-11-15 22:39:00,
2013-11-15 17:45:00,33.2,18.8,30.10,South,180,4.6,4.6,55,0.00,CLR,,0.00,WeatherDisplay:10.37,2013-11-15 22:45:00,
2013-11-15 17:50:00,33.1,19.1,30.10,SSW,202,5.8,5.8,56,0.00,CLR,,0.00,WeatherDisplay:10.37,2013-11-15 22:50:00,
2013-11-15 17:55:00,32.6,18.2,30.10,South,180,4.6,4.6,55,0.00,CLR,,0.00,WeatherDisplay:10.37,2013-11-15 22:55:00,
2013-11-15 18:00:00,32.5,18.1,30.10,South,180,5.0,5.0,55,0.00,CLR,,0.00,WeatherDisplay:10.37,2013-11-15 23:00:00,
2013-11-15 18:05:00,32.3,17.0,30.12,South,180,6.9,6.9,53,0.00,CLR,,0.00,WeatherDisplay:10.37,2013-11-15 23:05:00,
2013-11-15 18:10:00,32.2,17.4,30.12,South,180,6.9,6.9,54,0.00,CLR,,0.00,WeatherDisplay:10.37,2013-11-15 23:10:00,
2013-11-15 18:15:00,32.1,17.7,30.12,South,180,6.9,6.9,55,0.00,CLR,,0.00,WeatherDisplay:10.37,2013-11-15 23:15:00,
2013-11-15 18:20:00,31.9,17.5,30.12,SSW,202,6.0,6.0,55,0.00,CLR,,0.00,WeatherDisplay:10.37,2013-11-15 23:20:00,
2013-11-15 18:25:00,31.7,17.8,30.12,South,180,4.6,4.6,56,0.00,CLR,,0.00,WeatherDisplay:10.37,2013-11-15 23:25:00,
2013-11-15 18:30:00,31.6,16.8,30.12,SSW,202,5.8,5.8,54,0.00,CLR,,0.00,WeatherDisplay:10.37,2013-11-15 23:30:00,
2013-11-15 18:35:00,31.4,17.1,30.12,SSW,202,7.4,7.4,55,0.00,CLR,,0.00,WeatherDisplay:10.37,2013-11-15 23:35:00,
2013-11-15 18:40:00,31.3,17.0,30.12,South,180,8.1,8.1,55,0.00,CLR,,0.00,WeatherDisplay:10.37,2013-11-15 23:40:00,
2013-11-15 18:45:00,31.4,16.2,30.12,SW,225,8.1,8.1,53,0.00,CLR,,0.00,WeatherDisplay:10.37,2013-11-15 23:45:00,
2013-11-15 18:50:00,31.3,16.6,30.12,South,180,6.9,6.9,54,0.00,CLR,,0.00,WeatherDisplay:10.37,2013-11-15 23:50:00,
2013-11-15 18:55:00,31.4,16.7,30.12,SSW,202,6.9,6.9,54,0.00,CLR,,0.00,WeatherDisplay:10.37,2013-11-15 23:55:00,
2013-11-15 19:00:00,31.3,17.0,30.12,SSW,202,6.9,6.9,55,0.00,CLR,,0.00,WeatherDisplay:10.37,2013-11-16 00:00:00,
2013-11-15 19:05:00,31.5,17.2,30.13,SSW,202,6.9,6.9,55,0.00,CLR,,0.00,WeatherDisplay:10.37,2013-11-16 00:05:00,
2013-11-15 19:10:00,31.8,17.4,30.13,South,180,8.1,8.1,55,0.00,CLR,,0.00,WeatherDisplay:10.37,2013-11-16 00:10:00,
2013-11-15 19:15:00,31.7,17.0,30.13,South,180,6.9,6.9,54,0.00,CLR,,0.00,WeatherDisplay:10.37,2013-11-16 00:15:00,
2013-11-15 19:20:00,31.7,16.9,30.13,South,180,10.4,10.4,54,0.00,CLR,,0.00,WeatherDisplay:10.37,2013-11-16 00:20:00,
2013-11-15 19:25:00,31.8,17.4,30.13,South,180,9.2,9.2,55,0.00,CLR,,0.00,WeatherDisplay:10.37,2013-11-16 00:25:00,
2013-11-15 19:30:00,31.8,17.0,30.13,South,180,8.1,8.1,54,0.00,CLR,,0.00,WeatherDisplay:10.37,2013-11-16 00:30:00,
2013-11-15 19:35:00,32.1,17.3,30.13,SW,225,8.1,8.1,54,0.00,CLR,,0.00,WeatherDisplay:10.37,2013-11-16 00:35:00,
2013-11-15 19:40:00,32.2,17.0,30.13,South,180,8.1,8.1,53,0.00,CLR,,0.00,WeatherDisplay:10.37,2013-11-16 00:40:00,
2013-11-15 19:45:00,31.9,17.1,30.13,SW,225,6.9,6.9,54,0.00,CLR,,0.00,WeatherDisplay:10.37,2013-11-16 00:45:00,
2013-11-15 19:50:00,31.9,16.7,30.13,South,180,6.9,6.9,53,0.00,CLR,,0.00,WeatherDisplay:10.37,2013-11-16 00:50:00,
2013-11-15 19:56:00,32.2,16.9,30.13,South,180,6.9,6.9,53,0.00,CLR,,0.00,WeatherDisplay:10.37,2013-11-16 00:56:00,
2013-11-15 20:01:00,32.1,17.7,30.14,South,180,5.8,5.8,55,0.00,CLR,,0.00,WeatherDisplay:10.37,2013-11-16 01:01:00,
2013-11-15 20:06:00,31.8,17.5,30.14,SSW,202,4.6,4.6,55,0.00,CLR,,0.00,WeatherDisplay:10.37,2013-11-16 01:06:00,
2013-11-15 20:11:00,31.8,16.6,30.14,SSE,158,4.6,4.6,53,0.00,CLR,,0.00,WeatherDisplay:10.37,2013-11-16 01:11:00,
2013-11-15 20:16:00,31.9,17.1,30.14,South,180,6.0,6.0,54,0.00,CLR,,0.00,WeatherDisplay:10.37,2013-11-16 01:16:00,
2013-11-15 20:21:00,31.4,16.7,30.14,South,180,4.6,4.6,54,0.00,CLR,,0.00,WeatherDisplay:10.37,2013-11-16 01:21:00,
2013-11-15 20:26:00,31.3,16.6,30.14,South,180,6.9,6.9,54,0.00,CLR,,0.00,WeatherDisplay:10.37,2013-11-16 01:26:00,
2013-11-15 20:31:00,31.3,16.1,30.14,SSW,202,5.8,5.8,53,0.00,CLR,,0.00,WeatherDisplay:10.37,2013-11-16 01:31:00,
2013-11-15 20:36:00,31.3,16.6,30.14,SSW,202,4.7,4.7,54,0.00,CLR,,0.00,WeatherDisplay:10.37,2013-11-16 01:36:00,
2013-11-15 20:41:00,31.3,17.4,30.14,WSW,248,3.5,3.5,56,0.00,CLR,,0.00,WeatherDisplay:10.37,2013-11-16 01:41:00,
2013-11-15 20:46:00,31.4,16.3,30.14,South,180,3.5,3.5,53,0.00,CLR,,0.00,WeatherDisplay:10.37,2013-11-16 01:46:00,
2013-11-15 20:51:00,31.4,16.7,30.14,SSW,202,3.5,3.5,54,0.00,CLR,,0.00,WeatherDisplay:10.37,2013-11-16 01:51:00,
2013-11-15 20:56:00,31.6,16.4,30.14,SSW,202,3.5,3.5,53,0.00,CLR,,0.00,WeatherDisplay:10.37,2013-11-16 01:56:00,
2013-11-15 21:01:00,31.3,17.4,30.14,SE,135,3.5,3.5,56,0.00,CLR,,0.00,WeatherDisplay:10.37,2013-11-16 02:01:00,
2013-11-15 21:06:00,31.0,16.7,30.14,SSW,202,1.6,1.6,55,0.00,CLR,,0.00,WeatherDisplay:10.37,2013-11-16 02:06:00,
2013-11-15 21:11:00,31.0,16.3,30.14,South,180,3.5,3.5,54,0.00,CLR,,0.00,WeatherDisplay:10.37,2013-11-16 02:11:00,
2013-11-15 21:16:00,30.8,16.5,30.14,South,180,3.5,3.5,55,0.00,CLR,,0.00,WeatherDisplay:10.37,2013-11-16 02:16:00,
2013-11-15 21:21:00,30.7,16.4,30.14,South,180,4.6,4.6,55,0.00,CLR,,0.00,WeatherDisplay:10.37,2013-11-16 02:21:00,
2013-11-15 21:26:00,30.7,16.0,30.14,South,180,4.6,4.6,54,0.00,CLR,,0.00,WeatherDisplay:10.37,2013-11-16 02:26:00,
2013-11-15 21:31:00,30.8,16.1,30.14,SE,135,4.6,4.6,54,0.00,CLR,,0.00,WeatherDisplay:10.37,2013-11-16 02:31:00,
2013-11-15 21:36:00,31.1,15.9,30.14,SW,225,5.8,5.8,53,0.00,CLR,,0.00,WeatherDisplay:10.37,2013-11-16 02:36:00,
2013-11-15 21:41:00,31.2,16.9,30.14,SW,225,4.6,4.6,55,0.00,CLR,,0.00,WeatherDisplay:10.37,2013-11-16 02:41:00,
2013-11-15 21:46:00,31.2,16.5,30.14,South,180,4.6,4.6,54,0.00,CLR,,0.00,WeatherDisplay:10.37,2013-11-16 02:46:00,
2013-11-15 21:51:00,31.0,15.8,30.14,SE,135,3.0,3.0,53,0.00,CLR,,0.00,WeatherDisplay:10.37,2013-11-16 02:51:00,
2013-11-15 21:56:00,31.1,15.9,30.14,South,180,1.6,1.6,53,0.00,CLR,,0.00,WeatherDisplay:10.37,2013-11-16 02:56:00,
2013-11-15 22:01:00,30.9,16.2,30.15,SSW,202,1.2,0.0,54,0.00,CLR,,0.00,WeatherDisplay:10.37,2013-11-16 03:01:00,
2013-11-15 22:06:00,30.8,16.1,30.15,SSE,158,1.2,0.0,54,0.00,CLR,,0.00,WeatherDisplay:10.37,2013-11-16 03:06:00,
2013-11-15 22:11:00,30.9,16.2,30.15,SSW,202,3.1,3.1,54,0.00,CLR,,0.00,WeatherDisplay:10.37,2013-11-16 03:11:00,
2013-11-15 22:16:00,30.8,15.7,30.15,South,180,4.6,4.6,53,0.00,CLR,,0.00,WeatherDisplay:10.37,2013-11-16 03:16:00,
2013-11-15 22:21:00,30.8,15.7,30.15,SSE,158,1.2,0.0,53,0.00,CLR,,0.00,WeatherDisplay:10.37,2013-11-16 03:21:00,
2013-11-15 22:26:00,30.8,16.5,30.15,SE,135,3.5,3.5,55,0.00,CLR,,0.00,WeatherDisplay:10.37,2013-11-16 03:26:00,
2013-11-15 22:31:00,31.2,16.5,30.15,South,180,4.6,4.6,54,0.00,CLR,,0.00,WeatherDisplay:10.37,2013-11-16 03:31:00,
2013-11-15 22:36:00,31.0,15.8,30.15,SSW,202,5.8,5.8,53,0.00,CLR,,0.00,WeatherDisplay:10.37,2013-11-16 03:36:00,
2013-11-15 22:41:00,31.1,15.5,30.15,SE,135,4.6,4.6,52,0.00,CLR,,0.00,WeatherDisplay:10.37,2013-11-16 03:41:00,
2013-11-15 22:46:00,31.3,17.0,30.15,West,270,5.8,5.8,55,0.00,CLR,,0.00,WeatherDisplay:10.37,2013-11-16 03:46:00,
2013-11-15 22:51:00,31.2,16.4,30.15,SW,225,3.5,3.5,54,0.00,CLR,,0.00,WeatherDisplay:10.37,2013-11-16 03:51:00,
2013-11-15 22:56:00,31.0,16.3,30.15,WSW,248,0.0,0.0,54,0.00,CLR,,0.00,WeatherDisplay:10.37,2013-11-16 03:56:00,
2013-11-15 23:01:00,30.9,16.2,30.18,SW,225,4.6,4.6,54,0.00,CLR,,0.00,WeatherDisplay:10.37,2013-11-16 04:01:00,
2013-11-15 23:06:00,30.9,16.2,30.18,South,180,3.5,3.5,54,0.00,CLR,,0.00,WeatherDisplay:10.37,2013-11-16 04:06:00,
2013-11-15 23:11:00,30.9,16.2,30.18,SSE,158,3.5,3.5,54,0.00,CLR,,0.00,WeatherDisplay:10.37,2013-11-16 04:11:00,
2013-11-15 23:16:00,30.8,16.1,30.18,South,180,5.0,5.0,54,0.00,CLR,,0.00,WeatherDisplay:10.37,2013-11-16 04:16:00,
2013-11-15 23:21:00,30.7,15.6,30.18,South,180,4.6,4.6,53,0.00,CLR,,0.00,WeatherDisplay:10.37,2013-11-16 04:21:00,
2013-11-15 23:26:00,31.0,15.9,30.18,South,180,6.0,6.0,53,0.00,CLR,,0.00,WeatherDisplay:10.37,2013-11-16 04:26:00,
2013-11-15 23:31:00,31.6,16.8,30.18,SW,225,6.9,6.9,54,0.00,CLR,,0.00,WeatherDisplay:10.37,2013-11-16 04:31:00,
2013-11-15 23:36:00,31.6,16.8,30.18,SSE,158,0.0,0.0,54,0.00,CLR,,0.00,WeatherDisplay:10.37,2013-11-16 04:36:00,
2013-11-15 23:41:00,31.6,16.8,30.18,SW,225,0.0,0.0,54,0.00,CLR,,0.00,WeatherDisplay:10.37,2013-11-16 04:41:00,
2013-11-15 23:46:00,31.4,16.7,30.18,South,180,4.6,4.6,54,0.00,CLR,,0.00,WeatherDisplay:10.37,2013-11-16 04:46:00,
2013-11-15 23:51:00,31.4,16.7,30.18,South,180,4.6,4.6,54,0.00,CLR,,0.00,WeatherDisplay:10.37,2013-11-16 04:51:00,
2013-11-15 23:56:00,31.6,16.4,30.18,SSW,202,6.0,6.0,53,0.00,CLR,,0.00,WeatherDisplay:10.37,2013-11-16 04:56:00,